Hauptseite
METAR-TAF:

METAR-TAF

Flughäfen :

Graz, Österreich

Flughafen Graz

Breite: 47-00N, Länge: 015-26E, Höhe: 340 m

Beobachtung

Neuester Wetterbericht von vor 40 Minuten, um 08:20 UTC
Wind 2 kt aus unterschiedlichen Richtungen
Temperatur 3°C
Luftfeuchtigkeit 81%
Luftdruck 1014 hPa
Sichtweite 10 km oder mehr
keine Wolken unter 1500 m und keine Kumulonimbus oder Gewitterwolken

METAR: LOWG 270820Z VRB02KT CAVOK 03/M00 Q1014 R17/19//95 NOSIG

Zeit: 10:00 (09:00 UTC)

Prognose

Neuester Wetterbericht von vor 3 Stunden und 45 Minuten, um 05:15 UTC
Gültige Prognose vom 27 um 06 UTC bis 28 um 06 UTC
Wind 2 kt aus unterschiedlichen Richtungen
Sichtweite 10 km oder mehr
keine Wolken unter 1500 m und keine Kumulonimbus oder Gewitterwolken
Zeitweise
vom 27 um 11 UTC bis 27 um 19 UTC
Wind 10 kt aus Süd

TAF: LOWG 270515Z 2706/2806 VRB02KT CAVOK TX11/2711Z TNM00/2706Z TEMPO 2711/2719 19010KT

Wetterbeobachtungen und Prognosen von mehr als 4000 Flughäfen (METAR und TAF Bericht).

Die verfügbaren Stationen werden durch gelbe und rote Markierungen auf der Karte dargestellt.

Führen Sie die Maus auf sie, um den Namen der Station zu sehen.

Darauf klicken, um die Beobachtung von Wetterbeobachtungen und Prognosen zu sehen.

Um die Karte zu ändern : klicken Sie auf den grünen Tasten mit einem schwarzen Kreuz Zum Vergrößern, auf den grünen Button mit einem Gedankenstrich zu verkleinern, oder auf die grünen Pfeile für benachbarte Karten.


METAR-TAF: